sensor_id;sensor_type;location;lat;lon;timestamp;temperature;humidity
28177;DHT22;15461;41.652;9.378;2022-09-17T00:00:10;24.70;99.90
28177;DHT22;15461;41.652;9.378;2022-09-17T00:02:36;24.80;99.90
28177;DHT22;15461;41.652;9.378;2022-09-17T00:05:03;24.80;99.90
28177;DHT22;15461;41.652;9.378;2022-09-17T00:07:29;24.80;99.90
28177;DHT22;15461;41.652;9.378;2022-09-17T00:09:55;24.70;99.90
28177;DHT22;15461;41.652;9.378;2022-09-17T00:12:21;24.70;99.90
28177;DHT22;15461;41.652;9.378;2022-09-17T00:14:47;24.80;99.90
28177;DHT22;15461;41.652;9.378;2022-09-17T00:17:13;24.80;99.90
28177;DHT22;15461;41.652;9.378;2022-09-17T00:19:38;24.80;99.90
28177;DHT22;15461;41.652;9.378;2022-09-17T00:22:05;24.80;99.90
28177;DHT22;15461;41.652;9.378;2022-09-17T00:24:30;24.70;99.90
28177;DHT22;15461;41.652;9.378;2022-09-17T00:26:56;24.70;99.90
28177;DHT22;15461;41.652;9.378;2022-09-17T00:29:23;24.70;99.90
28177;DHT22;15461;41.652;9.378;2022-09-17T00:31:49;24.70;99.90
28177;DHT22;15461;41.652;9.378;2022-09-17T00:34:15;24.60;99.90
28177;DHT22;15461;41.652;9.378;2022-09-17T00:36:41;24.60;99.90
28177;DHT22;15461;41.652;9.378;2022-09-17T00:39:08;24.60;99.90
28177;DHT22;15461;41.652;9.378;2022-09-17T00:41:35;24.60;99.90
28177;DHT22;15461;41.652;9.378;2022-09-17T00:47:34;24.60;99.90
28177;DHT22;15461;41.652;9.378;2022-09-17T00:50:03;24.60;99.90
28177;DHT22;15461;41.652;9.378;2022-09-17T00:52:38;24.50;99.90
28177;DHT22;15461;41.652;9.378;2022-09-17T00:57:54;24.50;99.90
28177;DHT22;15461;41.652;9.378;2022-09-17T01:00:20;24.50;99.90
28177;DHT22;15461;41.652;9.378;2022-09-17T01:02:47;24.50;99.90
28177;DHT22;15461;41.652;9.378;2022-09-17T01:05:14;24.50;99.90
28177;DHT22;15461;41.652;9.378;2022-09-17T01:08:06;24.50;99.90
28177;DHT22;15461;41.652;9.378;2022-09-17T01:10:55;24.50;99.90
28177;DHT22;15461;41.652;9.378;2022-09-17T01:16:33;24.40;99.90
28177;DHT22;15461;41.652;9.378;2022-09-17T01:30:41;24.30;99.90
28177;DHT22;15461;41.652;9.378;2022-09-17T01:33:17;24.30;99.90
28177;DHT22;15461;41.652;9.378;2022-09-17T01:36:05;24.20;99.90
28177;DHT22;15461;41.652;9.378;2022-09-17T01:38:43;24.20;99.90
28177;DHT22;15461;41.652;9.378;2022-09-17T01:44:08;24.20;99.90
28177;DHT22;15461;41.652;9.378;2022-09-17T01:46:44;24.20;99.90
28177;DHT22;15461;41.652;9.378;2022-09-17T01:49:11;24.20;99.90
28177;DHT22;15461;41.652;9.378;2022-09-17T01:51:44;24.20;99.90
28177;DHT22;15461;41.652;9.378;2022-09-17T01:54:24;24.20;99.90
28177;DHT22;15461;41.652;9.378;2022-09-17T01:56:58;24.20;99.90
28177;DHT22;15461;41.652;9.378;2022-09-17T01:59:29;24.20;99.90
28177;DHT22;15461;41.652;9.378;2022-09-17T02:02:51;24.10;99.90
28177;DHT22;15461;41.652;9.378;2022-09-17T02:05:09;24.20;99.90
28177;DHT22;15461;41.652;9.378;2022-09-17T02:07:53;24.20;99.90
28177;DHT22;15461;41.652;9.378;2022-09-17T02:10:25;24.20;99.90
28177;DHT22;15461;41.652;9.378;2022-09-17T02:12:57;24.20;99.90
28177;DHT22;15461;41.652;9.378;2022-09-17T02:15:33;24.20;99.90
28177;DHT22;15461;41.652;9.378;2022-09-17T02:20:53;24.20;99.90
28177;DHT22;15461;41.652;9.378;2022-09-17T02:23:29;24.20;99.90
28177;DHT22;15461;41.652;9.378;2022-09-17T02:26:08;24.10;99.90
28177;DHT22;15461;41.652;9.378;2022-09-17T02:31:07;24.00;99.90
28177;DHT22;15461;41.652;9.378;2022-09-17T02:33:34;24.00;99.90
28177;DHT22;15461;41.652;9.378;2022-09-17T02:36:02;24.00;99.90
28177;DHT22;15461;41.652;9.378;2022-09-17T02:38:29;24.00;99.90
28177;DHT22;15461;41.652;9.378;2022-09-17T02:41:20;24.00;99.90
28177;DHT22;15461;41.652;9.378;2022-09-17T02:58:39;24.00;99.90
28177;DHT22;15461;41.652;9.378;2022-09-17T03:01:19;24.00;99.90
28177;DHT22;15461;41.652;9.378;2022-09-17T03:03:46;24.00;99.90
28177;DHT22;15461;41.652;9.378;2022-09-17T03:06:16;23.90;99.90
28177;DHT22;15461;41.652;9.378;2022-09-17T03:08:44;23.90;99.90
28177;DHT22;15461;41.652;9.378;2022-09-17T03:11:10;24.00;99.90
28177;DHT22;15461;41.652;9.378;2022-09-17T03:13:37;24.00;99.90
28177;DHT22;15461;41.652;9.378;2022-09-17T03:16:04;23.90;99.90
28177;DHT22;15461;41.652;9.378;2022-09-17T03:18:31;23.90;99.90
28177;DHT22;15461;41.652;9.378;2022-09-17T03:20:57;23.90;99.90
28177;DHT22;15461;41.652;9.378;2022-09-17T03:23:23;23.90;99.90
28177;DHT22;15461;41.652;9.378;2022-09-17T03:25:49;23.90;99.90
28177;DHT22;15461;41.652;9.378;2022-09-17T03:28:15;23.80;99.90
28177;DHT22;15461;41.652;9.378;2022-09-17T03:30:45;23.70;99.90
28177;DHT22;15461;41.652;9.378;2022-09-17T03:33:12;23.70;99.90
28177;DHT22;15461;41.652;9.378;2022-09-17T03:35:42;23.60;99.90
28177;DHT22;15461;41.652;9.378;2022-09-17T03:38:08;23.60;99.90
28177;DHT22;15461;41.652;9.378;2022-09-17T03:40:34;23.60;99.90
28177;DHT22;15461;41.652;9.378;2022-09-17T03:43:00;23.60;99.90
28177;DHT22;15461;41.652;9.378;2022-09-17T03:45:25;23.60;99.90
28177;DHT22;15461;41.652;9.378;2022-09-17T03:47:51;23.60;99.90
28177;DHT22;15461;41.652;9.378;2022-09-17T03:50:17;23.60;99.90
28177;DHT22;15461;41.652;9.378;2022-09-17T03:52:43;23.50;99.90
28177;DHT22;15461;41.652;9.378;2022-09-17T03:55:09;23.60;99.90
28177;DHT22;15461;41.652;9.378;2022-09-17T03:57:36;23.50;99.90
28177;DHT22;15461;41.652;9.378;2022-09-17T04:00:03;23.50;99.90
28177;DHT22;15461;41.652;9.378;2022-09-17T04:02:37;23.50;99.90
28177;DHT22;15461;41.652;9.378;2022-09-17T04:05:03;23.40;99.90
28177;DHT22;15461;41.652;9.378;2022-09-17T04:07:30;23.40;99.90
28177;DHT22;15461;41.652;9.378;2022-09-17T04:09:55;23.40;99.90
28177;DHT22;15461;41.652;9.378;2022-09-17T04:12:21;23.40;99.90
28177;DHT22;15461;41.652;9.378;2022-09-17T04:14:47;23.40;99.90
28177;DHT22;15461;41.652;9.378;2022-09-17T04:17:13;23.40;99.90
28177;DHT22;15461;41.652;9.378;2022-09-17T04:19:43;23.40;99.90
28177;DHT22;15461;41.652;9.378;2022-09-17T04:22:09;23.40;99.90
28177;DHT22;15461;41.652;9.378;2022-09-17T04:24:35;23.30;99.90
28177;DHT22;15461;41.652;9.378;2022-09-17T04:27:01;23.30;99.90
28177;DHT22;15461;41.652;9.378;2022-09-17T04:29:27;23.20;99.90
28177;DHT22;15461;41.652;9.378;2022-09-17T04:31:53;23.20;99.90
28177;DHT22;15461;41.652;9.378;2022-09-17T04:34:19;23.20;99.90
28177;DHT22;15461;41.652;9.378;2022-09-17T04:36:44;23.10;99.90
28177;DHT22;15461;41.652;9.378;2022-09-17T04:39:10;23.20;99.90
28177;DHT22;15461;41.652;9.378;2022-09-17T04:41:36;23.20;99.90
28177;DHT22;15461;41.652;9.378;2022-09-17T04:44:02;23.20;99.90
28177;DHT22;15461;41.652;9.378;2022-09-17T04:46:28;23.30;99.90
28177;DHT22;15461;41.652;9.378;2022-09-17T04:48:54;23.20;99.90
28177;DHT22;15461;41.652;9.378;2022-09-17T04:51:20;23.30;99.90
28177;DHT22;15461;41.652;9.378;2022-09-17T04:53:46;23.20;99.90
28177;DHT22;15461;41.652;9.378;2022-09-17T04:56:12;23.20;99.90
28177;DHT22;15461;41.652;9.378;2022-09-17T04:58:38;23.20;99.90
28177;DHT22;15461;41.652;9.378;2022-09-17T05:01:04;23.30;99.90
28177;DHT22;15461;41.652;9.378;2022-09-17T05:03:30;23.30;99.90
28177;DHT22;15461;41.652;9.378;2022-09-17T05:05:56;23.40;99.90
28177;DHT22;15461;41.652;9.378;2022-09-17T05:08:22;23.40;99.90
28177;DHT22;15461;41.652;9.378;2022-09-17T05:10:51;23.40;99.90
28177;DHT22;15461;41.652;9.378;2022-09-17T05:13:17;23.30;99.90
28177;DHT22;15461;41.652;9.378;2022-09-17T05:15:43;23.30;99.90
28177;DHT22;15461;41.652;9.378;2022-09-17T05:18:10;23.20;99.90
28177;DHT22;15461;41.652;9.378;2022-09-17T05:20:35;23.00;99.90
28177;DHT22;15461;41.652;9.378;2022-09-17T05:23:01;23.00;99.90
28177;DHT22;15461;41.652;9.378;2022-09-17T05:25:27;23.00;99.90
28177;DHT22;15461;41.652;9.378;2022-09-17T05:27:53;23.00;99.90
28177;DHT22;15461;41.652;9.378;2022-09-17T05:30:20;22.90;99.90
28177;DHT22;15461;41.652;9.378;2022-09-17T05:32:46;22.90;99.90
28177;DHT22;15461;41.652;9.378;2022-09-17T05:35:11;22.90;99.90
28177;DHT22;15461;41.652;9.378;2022-09-17T05:37:37;22.90;99.90
28177;DHT22;15461;41.652;9.378;2022-09-17T05:40:05;22.90;99.90
28177;DHT22;15461;41.652;9.378;2022-09-17T05:42:32;22.90;99.90
28177;DHT22;15461;41.652;9.378;2022-09-17T05:44:58;22.90;99.90
28177;DHT22;15461;41.652;9.378;2022-09-17T05:47:24;22.90;99.90
28177;DHT22;15461;41.652;9.378;2022-09-17T05:49:50;22.90;99.90
28177;DHT22;15461;41.652;9.378;2022-09-17T05:52:16;22.90;99.90
28177;DHT22;15461;41.652;9.378;2022-09-17T05:54:43;23.00;99.90
28177;DHT22;15461;41.652;9.378;2022-09-17T05:57:09;23.00;99.90
28177;DHT22;15461;41.652;9.378;2022-09-17T05:59:35;23.00;99.90
28177;DHT22;15461;41.652;9.378;2022-09-17T06:02:01;23.00;99.90
28177;DHT22;15461;41.652;9.378;2022-09-17T06:04:27;23.10;99.90
28177;DHT22;15461;41.652;9.378;2022-09-17T06:06:53;23.10;99.90
28177;DHT22;15461;41.652;9.378;2022-09-17T06:09:19;23.10;99.90
28177;DHT22;15461;41.652;9.378;2022-09-17T06:11:45;23.10;99.90
28177;DHT22;15461;41.652;9.378;2022-09-17T06:14:11;23.20;99.90
28177;DHT22;15461;41.652;9.378;2022-09-17T06:16:37;23.20;99.90
28177;DHT22;15461;41.652;9.378;2022-09-17T06:19:03;23.20;99.90
28177;DHT22;15461;41.652;9.378;2022-09-17T06:21:29;23.30;99.90
28177;DHT22;15461;41.652;9.378;2022-09-17T06:23:55;23.30;99.90
28177;DHT22;15461;41.652;9.378;2022-09-17T06:26:21;23.40;99.90
28177;DHT22;15461;41.652;9.378;2022-09-17T06:28:47;23.40;99.90
28177;DHT22;15461;41.652;9.378;2022-09-17T06:31:13;23.40;99.90
28177;DHT22;15461;41.652;9.378;2022-09-17T06:33:39;23.50;99.90
28177;DHT22;15461;41.652;9.378;2022-09-17T06:36:08;23.50;99.90
28177;DHT22;15461;41.652;9.378;2022-09-17T06:38:35;23.50;99.90
28177;DHT22;15461;41.652;9.378;2022-09-17T06:41:02;23.60;99.90
28177;DHT22;15461;41.652;9.378;2022-09-17T06:43:29;23.60;99.90
28177;DHT22;15461;41.652;9.378;2022-09-17T06:45:57;23.60;99.90
28177;DHT22;15461;41.652;9.378;2022-09-17T06:48:24;23.60;99.90
28177;DHT22;15461;41.652;9.378;2022-09-17T06:50:50;23.70;99.90
28177;DHT22;15461;41.652;9.378;2022-09-17T06:53:22;23.70;99.90
28177;DHT22;15461;41.652;9.378;2022-09-17T06:55:49;23.70;99.90
28177;DHT22;15461;41.652;9.378;2022-09-17T06:58:15;23.70;99.90
28177;DHT22;15461;41.652;9.378;2022-09-17T07:00:41;23.90;99.90
28177;DHT22;15461;41.652;9.378;2022-09-17T07:03:08;23.90;99.90
28177;DHT22;15461;41.652;9.378;2022-09-17T07:05:34;23.90;99.90
28177;DHT22;15461;41.652;9.378;2022-09-17T07:08:01;24.00;99.90
28177;DHT22;15461;41.652;9.378;2022-09-17T07:10:30;24.10;99.90
28177;DHT22;15461;41.652;9.378;2022-09-17T07:12:57;24.00;99.90
28177;DHT22;15461;41.652;9.378;2022-09-17T07:15:24;24.10;99.90
28177;DHT22;15461;41.652;9.378;2022-09-17T07:17:49;24.20;99.90
28177;DHT22;15461;41.652;9.378;2022-09-17T07:20:16;24.20;99.90
28177;DHT22;15461;41.652;9.378;2022-09-17T07:22:42;24.20;99.90
28177;DHT22;15461;41.652;9.378;2022-09-17T07:25:08;24.20;99.90
28177;DHT22;15461;41.652;9.378;2022-09-17T07:27:35;24.20;99.90
28177;DHT22;15461;41.652;9.378;2022-09-17T07:30:01;24.40;99.90
28177;DHT22;15461;41.652;9.378;2022-09-17T07:32:29;24.40;99.90
28177;DHT22;15461;41.652;9.378;2022-09-17T07:34:55;24.50;99.90
28177;DHT22;15461;41.652;9.378;2022-09-17T07:37:21;24.60;99.90
28177;DHT22;15461;41.652;9.378;2022-09-17T07:39:48;24.60;99.90
28177;DHT22;15461;41.652;9.378;2022-09-17T07:42:13;24.60;99.90
28177;DHT22;15461;41.652;9.378;2022-09-17T07:44:39;24.70;99.90
28177;DHT22;15461;41.652;9.378;2022-09-17T07:47:05;24.70;99.90
28177;DHT22;15461;41.652;9.378;2022-09-17T07:49:31;24.70;99.90
28177;DHT22;15461;41.652;9.378;2022-09-17T07:51:57;24.70;99.90
28177;DHT22;15461;41.652;9.378;2022-09-17T07:54:24;24.70;99.90
28177;DHT22;15461;41.652;9.378;2022-09-17T07:56:51;24.60;99.90
28177;DHT22;15461;41.652;9.378;2022-09-17T07:59:17;24.60;99.90
28177;DHT22;15461;41.652;9.378;2022-09-17T08:01:44;24.60;99.90
28177;DHT22;15461;41.652;9.378;2022-09-17T08:04:10;24.70;99.90
28177;DHT22;15461;41.652;9.378;2022-09-17T08:06:36;24.80;99.90
28177;DHT22;15461;41.652;9.378;2022-09-17T08:09:03;24.80;99.90
28177;DHT22;15461;41.652;9.378;2022-09-17T08:11:30;24.70;99.90
28177;DHT22;15461;41.652;9.378;2022-09-17T08:13:56;24.80;99.90
28177;DHT22;15461;41.652;9.378;2022-09-17T08:16:22;24.80;99.90
28177;DHT22;15461;41.652;9.378;2022-09-17T08:18:54;25.00;99.90
28177;DHT22;15461;41.652;9.378;2022-09-17T08:21:20;25.00;99.90
28177;DHT22;15461;41.652;9.378;2022-09-17T08:23:46;25.00;99.90
28177;DHT22;15461;41.652;9.378;2022-09-17T08:26:15;25.20;99.90
28177;DHT22;15461;41.652;9.378;2022-09-17T08:28:49;25.40;99.90
28177;DHT22;15461;41.652;9.378;2022-09-17T08:31:17;25.40;99.90
28177;DHT22;15461;41.652;9.378;2022-09-17T08:33:45;25.60;99.90
28177;DHT22;15461;41.652;9.378;2022-09-17T08:36:12;25.70;99.90
28177;DHT22;15461;41.652;9.378;2022-09-17T08:38:38;25.70;99.90
28177;DHT22;15461;41.652;9.378;2022-09-17T08:44:00;25.80;99.50
28177;DHT22;15461;41.652;9.378;2022-09-17T08:46:27;26.00;99.90
28177;DHT22;15461;41.652;9.378;2022-09-17T08:54:41;25.90;99.70
28177;DHT22;15461;41.652;9.378;2022-09-17T09:00:09;26.10;99.30
28177;DHT22;15461;41.652;9.378;2022-09-17T09:05:47;26.30;99.10
28177;DHT22;15461;41.652;9.378;2022-09-17T09:10:54;26.50;98.40
28177;DHT22;15461;41.652;9.378;2022-09-17T09:13:23;26.60;98.10
28177;DHT22;15461;41.652;9.378;2022-09-17T09:15:59;26.70;98.20
28177;DHT22;15461;41.652;9.378;2022-09-17T09:18:32;26.60;97.60
28177;DHT22;15461;41.652;9.378;2022-09-17T09:21:13;26.70;97.90
28177;DHT22;15461;41.652;9.378;2022-09-17T09:29:38;26.70;95.50
28177;DHT22;15461;41.652;9.378;2022-09-17T09:34:47;26.80;96.10
28177;DHT22;15461;41.652;9.378;2022-09-17T09:37:33;27.00;96.10
28177;DHT22;15461;41.652;9.378;2022-09-17T09:40:24;27.20;94.10
28177;DHT22;15461;41.652;9.378;2022-09-17T09:42:54;27.40;93.70
28177;DHT22;15461;41.652;9.378;2022-09-17T09:45:40;27.30;94.10
28177;DHT22;15461;41.652;9.378;2022-09-17T09:48:43;27.40;93.70
28177;DHT22;15461;41.652;9.378;2022-09-17T09:51:38;27.50;94.10
28177;DHT22;15461;41.652;9.378;2022-09-17T09:57:09;27.50;94.60
28177;DHT22;15461;41.652;9.378;2022-09-17T09:59:37;27.40;93.00
28177;DHT22;15461;41.652;9.378;2022-09-17T10:02:03;27.50;92.70
28177;DHT22;15461;41.652;9.378;2022-09-17T10:04:29;27.70;91.80
28177;DHT22;15461;41.652;9.378;2022-09-17T10:07:06;27.70;92.50
28177;DHT22;15461;41.652;9.378;2022-09-17T10:09:34;27.70;93.20
28177;DHT22;15461;41.652;9.378;2022-09-17T10:14:34;27.80;86.10
28177;DHT22;15461;41.652;9.378;2022-09-17T10:17:23;27.80;85.60
28177;DHT22;15461;41.652;9.378;2022-09-17T10:22:37;27.90;87.60
28177;DHT22;15461;41.652;9.378;2022-09-17T10:25:33;28.00;86.30
28177;DHT22;15461;41.652;9.378;2022-09-17T10:28:05;28.00;84.80
28177;DHT22;15461;41.652;9.378;2022-09-17T10:31:04;28.10;88.20
28177;DHT22;15461;41.652;9.378;2022-09-17T10:34:11;28.10;88.00
28177;DHT22;15461;41.652;9.378;2022-09-17T10:36:44;28.00;83.00
28177;DHT22;15461;41.652;9.378;2022-09-17T10:42:00;28.00;84.40
28177;DHT22;15461;41.652;9.378;2022-09-17T10:44:34;28.10;80.70
28177;DHT22;15461;41.652;9.378;2022-09-17T10:47:09;28.20;80.20
28177;DHT22;15461;41.652;9.378;2022-09-17T10:49:45;28.30;79.30
28177;DHT22;15461;41.652;9.378;2022-09-17T10:52:37;28.30;77.40
28177;DHT22;15461;41.652;9.378;2022-09-17T11:06:29;28.50;74.50
28177;DHT22;15461;41.652;9.378;2022-09-17T11:17:08;28.40;63.80
28177;DHT22;15461;41.652;9.378;2022-09-17T11:19:57;28.50;60.20
28177;DHT22;15461;41.652;9.378;2022-09-17T11:25:35;28.70;58.10
28177;DHT22;15461;41.652;9.378;2022-09-17T11:31:11;29.10;89.00
28177;DHT22;15461;41.652;9.378;2022-09-17T11:36:48;28.70;98.80
28177;DHT22;15461;41.652;9.378;2022-09-17T11:39:27;28.60;98.60
28177;DHT22;15461;41.652;9.378;2022-09-17T11:41:57;28.70;98.20
28177;DHT22;15461;41.652;9.378;2022-09-17T11:44:30;28.90;98.10
28177;DHT22;15461;41.652;9.378;2022-09-17T11:47:12;29.00;96.70
28177;DHT22;15461;41.652;9.378;2022-09-17T11:49:50;29.30;98.00
28177;DHT22;15461;41.652;9.378;2022-09-17T11:52:38;29.50;99.10
28177;DHT22;15461;41.652;9.378;2022-09-17T11:57:43;29.50;98.60
28177;DHT22;15461;41.652;9.378;2022-09-17T12:00:14;29.20;95.90
28177;DHT22;15461;41.652;9.378;2022-09-17T12:03:00;29.20;91.30
28177;DHT22;15461;41.652;9.378;2022-09-17T12:05:40;29.10;85.70
28177;DHT22;15461;41.652;9.378;2022-09-17T12:08:21;29.00;90.80
28177;DHT22;15461;41.652;9.378;2022-09-17T12:16:32;29.10;88.60
28177;DHT22;15461;41.652;9.378;2022-09-17T12:19:21;29.40;90.30
28177;DHT22;15461;41.652;9.378;2022-09-17T12:21:54;29.40;95.20
28177;DHT22;15461;41.652;9.378;2022-09-17T12:24:24;29.20;93.80
28177;DHT22;15461;41.652;9.378;2022-09-17T12:30:04;29.30;93.30
28177;DHT22;15461;41.652;9.378;2022-09-17T12:38:10;29.50;91.70
28177;DHT22;15461;41.652;9.378;2022-09-17T12:41:06;29.40;92.20
28177;DHT22;15461;41.652;9.378;2022-09-17T12:43:55;29.30;92.80
28177;DHT22;15461;41.652;9.378;2022-09-17T13:00:12;29.40;93.00
28177;DHT22;15461;41.652;9.378;2022-09-17T13:03:03;29.10;85.50
28177;DHT22;15461;41.652;9.378;2022-09-17T13:11:40;29.30;87.10
28177;DHT22;15461;41.652;9.378;2022-09-17T13:17:05;28.60;81.20
28177;DHT22;15461;41.652;9.378;2022-09-17T13:22:45;29.20;86.60
28177;DHT22;15461;41.652;9.378;2022-09-17T13:25:13;29.60;81.00
28177;DHT22;15461;41.652;9.378;2022-09-17T13:27:40;29.90;75.40
28177;DHT22;15461;41.652;9.378;2022-09-17T13:30:11;29.90;75.60
28177;DHT22;15461;41.652;9.378;2022-09-17T13:37:42;29.90;84.70
28177;DHT22;15461;41.652;9.378;2022-09-17T13:40:25;29.20;99.50
28177;DHT22;15461;41.652;9.378;2022-09-17T13:42:52;28.20;99.90
28177;DHT22;15461;41.652;9.378;2022-09-17T13:45:23;27.60;99.90
28177;DHT22;15461;41.652;9.378;2022-09-17T13:47:58;26.80;99.90
28177;DHT22;15461;41.652;9.378;2022-09-17T13:55:46;25.60;99.90
28177;DHT22;15461;41.652;9.378;2022-09-17T13:58:33;25.50;99.90
28177;DHT22;15461;41.652;9.378;2022-09-17T14:08:47;26.20;99.90
28177;DHT22;15461;41.652;9.378;2022-09-17T14:24:38;25.70;99.90
28177;DHT22;15461;41.652;9.378;2022-09-17T14:46:38;25.30;99.90
28177;DHT22;15461;41.652;9.378;2022-09-17T14:51:43;25.30;99.90
28177;DHT22;15461;41.652;9.378;2022-09-17T15:02:36;24.90;99.90
28177;DHT22;15461;41.652;9.378;2022-09-17T15:05:22;24.80;99.90
28177;DHT22;15461;41.652;9.378;2022-09-17T15:08:14;24.80;99.90
28177;DHT22;15461;41.652;9.378;2022-09-17T15:10:52;24.80;99.90
28177;DHT22;15461;41.652;9.378;2022-09-17T15:13:31;24.80;99.90
28177;DHT22;15461;41.652;9.378;2022-09-17T15:16:15;24.80;99.90
28177;DHT22;15461;41.652;9.378;2022-09-17T15:23:53;24.50;99.90
28177;DHT22;15461;41.652;9.378;2022-09-17T15:26:27;24.40;99.90
28177;DHT22;15461;41.652;9.378;2022-09-17T15:28:56;24.50;99.90
28177;DHT22;15461;41.652;9.378;2022-09-17T15:31:22;24.40;99.90
28177;DHT22;15461;41.652;9.378;2022-09-17T15:33:49;24.20;99.90
28177;DHT22;15461;41.652;9.378;2022-09-17T15:36:24;23.90;99.90
28177;DHT22;15461;41.652;9.378;2022-09-17T15:38:52;23.90;99.90
28177;DHT22;15461;41.652;9.378;2022-09-17T15:41:27;24.00;99.90
28177;DHT22;15461;41.652;9.378;2022-09-17T15:46:37;24.00;99.90
28177;DHT22;15461;41.652;9.378;2022-09-17T15:49:25;23.80;99.90
28177;DHT22;15461;41.652;9.378;2022-09-17T15:51:49;23.70;99.90
28177;DHT22;15461;41.652;9.378;2022-09-17T15:54:31;23.80;99.90
28177;DHT22;15461;41.652;9.378;2022-09-17T15:56:59;23.70;99.90
28177;DHT22;15461;41.652;9.378;2022-09-17T15:59:30;23.70;99.90
28177;DHT22;15461;41.652;9.378;2022-09-17T16:02:00;23.60;99.90
28177;DHT22;15461;41.652;9.378;2022-09-17T16:04:28;23.50;99.90
28177;DHT22;15461;41.652;9.378;2022-09-17T16:09:45;23.30;99.90
28177;DHT22;15461;41.652;9.378;2022-09-17T16:12:18;23.20;99.90
28177;DHT22;15461;41.652;9.378;2022-09-17T16:14:45;23.10;99.90
28177;DHT22;15461;41.652;9.378;2022-09-17T16:17:24;23.20;99.90
28177;DHT22;15461;41.652;9.378;2022-09-17T16:19:53;23.10;99.90
28177;DHT22;15461;41.652;9.378;2022-09-17T16:22:20;23.00;99.90
28177;DHT22;15461;41.652;9.378;2022-09-17T16:24:46;23.00;99.90
28177;DHT22;15461;41.652;9.378;2022-09-17T16:27:23;23.00;99.90
28177;DHT22;15461;41.652;9.378;2022-09-17T16:29:50;23.00;99.90
28177;DHT22;15461;41.652;9.378;2022-09-17T16:32:20;22.90;99.90
28177;DHT22;15461;41.652;9.378;2022-09-17T16:34:46;22.90;99.90
28177;DHT22;15461;41.652;9.378;2022-09-17T16:37:12;22.90;99.90
28177;DHT22;15461;41.652;9.378;2022-09-17T16:39:38;22.90;99.90
28177;DHT22;15461;41.652;9.378;2022-09-17T16:42:04;22.90;99.90
28177;DHT22;15461;41.652;9.378;2022-09-17T16:44:30;22.90;99.90
28177;DHT22;15461;41.652;9.378;2022-09-17T16:46:56;22.90;99.90
28177;DHT22;15461;41.652;9.378;2022-09-17T16:49:21;22.80;99.90
28177;DHT22;15461;41.652;9.378;2022-09-17T16:51:47;22.90;99.90
28177;DHT22;15461;41.652;9.378;2022-09-17T16:54:13;22.90;99.90
28177;DHT22;15461;41.652;9.378;2022-09-17T16:56:39;22.90;99.90
28177;DHT22;15461;41.652;9.378;2022-09-17T16:59:05;22.90;99.90
28177;DHT22;15461;41.652;9.378;2022-09-17T17:01:32;22.90;99.90
28177;DHT22;15461;41.652;9.378;2022-09-17T17:03:58;22.90;99.90
28177;DHT22;15461;41.652;9.378;2022-09-17T17:06:25;23.00;99.90
28177;DHT22;15461;41.652;9.378;2022-09-17T17:08:51;23.00;99.90
28177;DHT22;15461;41.652;9.378;2022-09-17T17:11:17;23.00;99.90
28177;DHT22;15461;41.652;9.378;2022-09-17T17:13:43;23.10;99.90
28177;DHT22;15461;41.652;9.378;2022-09-17T17:16:11;23.10;99.90
28177;DHT22;15461;41.652;9.378;2022-09-17T17:18:41;23.10;99.90
28177;DHT22;15461;41.652;9.378;2022-09-17T17:21:10;23.20;99.90
28177;DHT22;15461;41.652;9.378;2022-09-17T17:23:37;23.20;99.90
28177;DHT22;15461;41.652;9.378;2022-09-17T17:26:03;23.20;99.90
28177;DHT22;15461;41.652;9.378;2022-09-17T17:28:33;23.30;99.90
28177;DHT22;15461;41.652;9.378;2022-09-17T17:31:00;23.30;99.90
28177;DHT22;15461;41.652;9.378;2022-09-17T17:33:26;23.30;99.90
28177;DHT22;15461;41.652;9.378;2022-09-17T17:35:52;23.20;99.90
28177;DHT22;15461;41.652;9.378;2022-09-17T17:38:18;23.10;99.90
28177;DHT22;15461;41.652;9.378;2022-09-17T17:40:44;23.10;99.90
28177;DHT22;15461;41.652;9.378;2022-09-17T17:43:10;22.80;99.90
28177;DHT22;15461;41.652;9.378;2022-09-17T17:45:39;22.60;99.90
28177;DHT22;15461;41.652;9.378;2022-09-17T17:48:05;22.60;99.90
28177;DHT22;15461;41.652;9.378;2022-09-17T17:50:32;22.70;99.90
28177;DHT22;15461;41.652;9.378;2022-09-17T17:52:58;22.70;99.90
28177;DHT22;15461;41.652;9.378;2022-09-17T17:55:24;22.70;99.90
28177;DHT22;15461;41.652;9.378;2022-09-17T17:57:55;22.60;99.90
28177;DHT22;15461;41.652;9.378;2022-09-17T18:00:21;22.50;99.90
28177;DHT22;15461;41.652;9.378;2022-09-17T18:02:49;22.40;99.90
28177;DHT22;15461;41.652;9.378;2022-09-17T18:05:15;22.30;99.90
28177;DHT22;15461;41.652;9.378;2022-09-17T18:07:41;22.20;99.90
28177;DHT22;15461;41.652;9.378;2022-09-17T18:10:07;22.00;99.90
28177;DHT22;15461;41.652;9.378;2022-09-17T18:12:33;21.90;99.90
28177;DHT22;15461;41.652;9.378;2022-09-17T18:15:01;21.90;99.90
28177;DHT22;15461;41.652;9.378;2022-09-17T18:17:28;21.80;99.90
28177;DHT22;15461;41.652;9.378;2022-09-17T18:19:54;21.80;99.90
28177;DHT22;15461;41.652;9.378;2022-09-17T18:22:21;21.70;99.90
28177;DHT22;15461;41.652;9.378;2022-09-17T18:24:47;21.60;99.90
28177;DHT22;15461;41.652;9.378;2022-09-17T18:27:13;21.60;99.90
28177;DHT22;15461;41.652;9.378;2022-09-17T18:29:39;21.60;99.90
28177;DHT22;15461;41.652;9.378;2022-09-17T18:32:05;21.60;99.90
28177;DHT22;15461;41.652;9.378;2022-09-17T18:34:31;21.70;99.90
28177;DHT22;15461;41.652;9.378;2022-09-17T18:36:57;21.80;99.90
28177;DHT22;15461;41.652;9.378;2022-09-17T18:39:23;21.90;99.90
28177;DHT22;15461;41.652;9.378;2022-09-17T18:41:49;21.90;99.90
28177;DHT22;15461;41.652;9.378;2022-09-17T18:44:15;22.00;99.90
28177;DHT22;15461;41.652;9.378;2022-09-17T18:46:43;22.00;99.90
28177;DHT22;15461;41.652;9.378;2022-09-17T18:49:09;21.90;99.90
28177;DHT22;15461;41.652;9.378;2022-09-17T18:51:36;21.90;99.90
28177;DHT22;15461;41.652;9.378;2022-09-17T18:54:02;21.90;99.90
28177;DHT22;15461;41.652;9.378;2022-09-17T18:56:30;21.90;99.90
28177;DHT22;15461;41.652;9.378;2022-09-17T18:58:58;22.00;99.90
28177;DHT22;15461;41.652;9.378;2022-09-17T19:01:26;22.00;99.90
28177;DHT22;15461;41.652;9.378;2022-09-17T19:03:53;22.00;99.90
28177;DHT22;15461;41.652;9.378;2022-09-17T19:06:20;22.00;99.90
28177;DHT22;15461;41.652;9.378;2022-09-17T19:08:46;22.00;99.90
28177;DHT22;15461;41.652;9.378;2022-09-17T19:11:12;21.90;99.90
28177;DHT22;15461;41.652;9.378;2022-09-17T19:13:41;21.90;99.90
28177;DHT22;15461;41.652;9.378;2022-09-17T19:16:08;21.80;99.90
28177;DHT22;15461;41.652;9.378;2022-09-17T19:18:35;21.70;99.90
28177;DHT22;15461;41.652;9.378;2022-09-17T19:21:11;21.70;99.90
28177;DHT22;15461;41.652;9.378;2022-09-17T19:23:41;21.60;99.90
28177;DHT22;15461;41.652;9.378;2022-09-17T19:26:10;21.60;99.90
28177;DHT22;15461;41.652;9.378;2022-09-17T19:28:36;21.60;99.90
28177;DHT22;15461;41.652;9.378;2022-09-17T19:31:06;21.60;99.90